Waarnemingen

Advertentie
Mijn weer
Isola Di Salina, Italië (16415): temperatuur: 15.10.2017 19:00:00 - 21.10.2017 19:00:00 (CEST)Isola Di Salina, Italië (16415): windsnelheid: 15.10.2017 19:00:00 - 21.10.2017 19:00:00 (CEST)Isola Di Salina, Italië (16415): windrichting: 15.10.2017 19:00:00 - 21.10.2017 19:00:00 (CEST)Isola Di Salina, Italië (16415): luchtdruk: 15.10.2017 19:00:00 - 21.10.2017 19:00:00 (CEST)Isola Di Salina, Italië (16415): neerslag: 15.10.2017 19:00:00 - 21.10.2017 19:00:00 (CEST)
Datum & Tijd tt [°C] ff [km/u] ff [kn] dd ppp [hPa] rr [mm]
21.10.2017 19:00:00 18,5 9 5 WNW 1021,0 -
21.10.2017 18:00:00 19,5 9 5 NW 1020,9 -
21.10.2017 17:00:00 20,2 9 5 NW 1020,9 -
21.10.2017 16:00:00 21,3 11 6 NNW 1020,7 -
21.10.2017 15:00:00 22,4 2 1 NO 1020,6 -
21.10.2017 14:00:00 23,4 4 2 ZO 1020,8 0,0
21.10.2017 13:00:00 22,6 4 2 O 1021,4 -
21.10.2017 12:00:00 23,0 4 2 ZO 1021,7 -
21.10.2017 11:00:00 22,3 8 4 ZO 1021,5 -
21.10.2017 10:00:00 21,5 9 5 ZO 1021,2 -
21.10.2017 09:00:00 19,6 8 4 ZO 1020,9 -
21.10.2017 08:00:00 18,0 8 4 Z 1020,3 0,0
21.10.2017 07:00:00 17,8 5 3 Z 1020,0 -
21.10.2017 06:00:00 17,9 4 2 Z 1020,1 -
21.10.2017 05:00:00 18,3 5 3 Z 1020,0 -
21.10.2017 04:00:00 17,9 9 5 Z 1019,9 -
21.10.2017 03:00:00 18,2 4 2 ZO 1020,0 -
21.10.2017 02:00:00 18,4 4 2 ZZO 1020,1 0,0
21.10.2017 01:00:00 18,4 5 3 Z 1020,2 -
21.10.2017 00:00:00 19,0 11 6 Z 1020,2 -
20.10.2017 23:00:00 19,0 5 3 ZO 1020,2 -
20.10.2017 22:00:00 18,9 9 5 Z 1020,1 -
20.10.2017 21:00:00 19,2 9 5 Z 1019,7 -
20.10.2017 20:00:00 19,4 13 7 Z 1019,2 0,0
20.10.2017 19:00:00 19,6 13 7 Z 1018,9 -
20.10.2017 18:00:00 20,1 8 4 Z 1018,6 -
20.10.2017 17:00:00 21,3 5 3 ZZO 1018,5 -
20.10.2017 16:00:00 22,4 2 1 O 1018,2 -
20.10.2017 15:00:00 21,6 2 1 N 1018,4 -
20.10.2017 14:00:00 22,4 5 3 NNW 1018,6 0,0
20.10.2017 13:00:00 21,8 4 2 N 1018,9 -
20.10.2017 12:00:00 22,1 4 2 O 1019,1 -
20.10.2017 11:00:00 21,4 2 1 ONO 1018,6 -
20.10.2017 10:00:00 21,4 4 2 ZO 1018,2 -
20.10.2017 09:00:00 19,1 2 1 ZO 1017,9 -
20.10.2017 08:00:00 17,5 0 0 N 1017,6 0,0
20.10.2017 07:00:00 17,1 2 1 WNW 1017,2 -
20.10.2017 06:00:00 17,2 9 5 WNW 1017,1 -
20.10.2017 05:00:00 17,2 9 5 W 1017,3 -
20.10.2017 04:00:00 17,0 0 0 N 1017,3 -
20.10.2017 03:00:00 16,8 8 4 W 1017,4 -
20.10.2017 02:00:00 17,3 0 0 N 1017,2 0,0
20.10.2017 01:00:00 18,0 8 4 Z 1017,2 -
20.10.2017 00:00:00 18,0 9 5 ZZW 1017,3 -
19.10.2017 23:00:00 18,2 16 9 Z 1017,5 -
19.10.2017 22:00:00 18,3 15 8 Z 1017,6 -
19.10.2017 21:00:00 18,2 11 6 Z 1017,8 -
19.10.2017 20:00:00 18,1 15 8 Z 1017,8 0,0
19.10.2017 19:00:00 18,1 11 6 Z 1017,7 -
19.10.2017 18:00:00 18,7 5 3 ZO 1017,6 -
19.10.2017 17:00:00 19,5 4 2 ZO 1017,7 -
19.10.2017 16:00:00 21,6 4 2 ONO 1017,9 -
19.10.2017 15:00:00 21,3 4 2 O 1018,0 -
19.10.2017 14:00:00 21,2 4 2 N 1018,4 0,0
19.10.2017 13:00:00 20,6 4 2 ONO 1018,9 -
19.10.2017 12:00:00 20,7 4 2 ONO 1019,2 -
19.10.2017 11:00:00 20,1 4 2 O 1019,1 -
19.10.2017 10:00:00 20,0 5 3 ZO 1018,9 -
19.10.2017 09:00:00 18,3 5 3 ZZO 1018,7 -
19.10.2017 08:00:00 16,2 5 3 Z 1018,3 -
19.10.2017 07:00:00 15,9 4 2 ZZW 1018,4 -
19.10.2017 06:00:00 15,5 2 1 ZZW 1018,6 -
19.10.2017 05:00:00 15,4 0 0 N 1018,6 -
19.10.2017 04:00:00 15,4 0 0 N 1018,6 -
19.10.2017 03:00:00 15,5 0 0 N 1019,0 -
19.10.2017 02:00:00 15,9 4 2 ZZW 1019,2 0,0
19.10.2017 01:00:00 16,2 4 2 ZZW 1019,2 -
19.10.2017 00:00:00 16,3 5 3 ZZW 1019,4 -
18.10.2017 23:00:00 15,7 2 1 ZZW 1019,5 -
18.10.2017 22:00:00 15,8 0 0 N 1019,6 -
18.10.2017 21:00:00 16,1 0 0 N 1019,7 -
18.10.2017 20:00:00 16,5 0 0 N 1019,5 0,0
18.10.2017 19:00:00 17,0 0 0 N 1019,4 -
18.10.2017 18:00:00 17,9 4 2 WNW 1019,4 -
18.10.2017 17:00:00 18,9 8 4 NNW 1019,3 -
18.10.2017 16:00:00 19,9 9 5 NNW 1019,5 -
18.10.2017 15:00:00 21,0 8 4 N 1019,8 -
18.10.2017 14:00:00 20,9 8 4 N 1020,3 0,0
18.10.2017 13:00:00 20,4 4 2 NNW 1020,9 -
18.10.2017 12:00:00 20,0 2 1 NNO 1021,4 -
18.10.2017 11:00:00 19,7 4 2 N 1021,7 -
18.10.2017 10:00:00 18,8 2 1 NNW 1021,7 -
18.10.2017 09:00:00 17,3 2 1 Z 1021,6 -
18.10.2017 08:00:00 15,3 0 0 N 1021,3 -
18.10.2017 07:00:00 15,3 2 1 ZZW 1021,3 -
18.10.2017 06:00:00 15,6 4 2 ZW 1021,4 -
18.10.2017 05:00:00 15,8 2 1 W 1021,6 -
18.10.2017 04:00:00 15,7 0 0 N 1022,0 -
18.10.2017 03:00:00 15,8 0 0 N 1022,5 -
18.10.2017 02:00:00 15,8 0 0 N 1022,9 0,0
18.10.2017 01:00:00 16,4 2 1 ZW 1023,1 -
18.10.2017 00:00:00 16,1 4 2 ZZW 1023,4 -
17.10.2017 23:00:00 16,3 4 2 ZZW 1023,6 -
17.10.2017 22:00:00 16,5 0 0 N 1023,6 -
17.10.2017 21:00:00 16,7 0 0 N 1023,6 -
17.10.2017 20:00:00 17,0 0 0 N 1023,6 0,0
17.10.2017 19:00:00 17,5 0 0 N 1023,5 -
17.10.2017 18:00:00 18,4 2 1 NNW 1023,6 -
17.10.2017 17:00:00 19,4 4 2 NNW 1023,8 -
17.10.2017 16:00:00 21,0 8 4 N 1023,9 -
17.10.2017 15:00:00 21,7 9 5 N 1024,2 -
17.10.2017 14:00:00 21,8 8 4 N 1024,9 0,0
17.10.2017 13:00:00 21,0 4 2 N 1025,7 -
17.10.2017 12:00:00 21,2 4 2 O 1025,9 -
17.10.2017 11:00:00 21,5 4 2 OZO 1025,9 -
17.10.2017 10:00:00 20,3 8 4 ZO 1026,1 -
17.10.2017 09:00:00 18,8 9 5 ZZO 1025,9 -
17.10.2017 08:00:00 16,7 8 4 Z 1025,7 -
17.10.2017 07:00:00 16,3 4 2 Z 1025,3 -
17.10.2017 06:00:00 16,0 4 2 ZZW 1025,4 -
17.10.2017 05:00:00 16,2 4 2 ZZW 1025,5 -
17.10.2017 04:00:00 16,3 4 2 ZZW 1025,6 -
17.10.2017 03:00:00 16,8 4 2 Z 1026,0 -
17.10.2017 02:00:00 16,7 4 2 Z 1026,3 0,0
17.10.2017 01:00:00 16,6 4 2 ZZW 1026,6 -
17.10.2017 00:00:00 16,7 4 2 ZZW 1026,9 -
16.10.2017 23:00:00 17,1 4 2 Z 1027,0 -
16.10.2017 22:00:00 17,5 5 3 Z 1027,0 -
16.10.2017 21:00:00 17,7 5 3 Z 1027,0 -
16.10.2017 20:00:00 17,8 5 3 Z 1026,9 0,0
16.10.2017 19:00:00 18,3 5 3 Z 1026,7 -
16.10.2017 18:00:00 19,0 2 1 O 1026,5 -
16.10.2017 17:00:00 19,6 4 2 NW 1026,5 -
16.10.2017 16:00:00 21,6 4 2 NO 1026,8 -
16.10.2017 15:00:00 21,5 4 2 O 1027,0 -
16.10.2017 14:00:00 21,5 4 2 O 1027,3 0,0
16.10.2017 13:00:00 21,8 4 2 OZO 1027,8 -
16.10.2017 12:00:00 21,2 4 2 O 1028,1 -
16.10.2017 11:00:00 20,6 4 2 O 1028,0 -
16.10.2017 10:00:00 19,5 2 1 NO 1027,6 -
16.10.2017 09:00:00 17,9 0 0 N 1027,2 -
16.10.2017 08:00:00 15,8 0 0 N 1027,0 -
16.10.2017 07:00:00 15,5 0 0 N 1026,8 -
16.10.2017 06:00:00 15,9 4 2 Z 1026,9 -
16.10.2017 05:00:00 15,8 0 0 N 1026,9 -
16.10.2017 04:00:00 16,1 0 0 N 1027,0 -
16.10.2017 03:00:00 15,8 0 0 N 1027,2 -
16.10.2017 02:00:00 16,4 2 1 ZW 1027,3 0,0
16.10.2017 01:00:00 16,7 5 3 ZW 1027,6 -
16.10.2017 00:00:00 16,9 5 3 ZW 1027,6 -
15.10.2017 23:00:00 17,1 5 3 W 1027,7 -
15.10.2017 22:00:00 17,0 4 2 WZW 1027,8 -
15.10.2017 21:00:00 17,3 4 2 W 1027,7 -
15.10.2017 20:00:00 17,6 5 3 W 1027,6 0,0
15.10.2017 19:00:00 17,9 8 4 W 1027,3 -

tt = temperatuur
ff = windsnelheid
dd = windrichting
ppp = luchtdruk
rr = neerslag

Weerstations in de omgeving